sensor_id;sensor_type;location;lat;lon;timestamp;pressure;altitude;pressure_sealevel;temperature;humidity
59194;BME280;44967;48.598;15.650;2023-06-19T00:00:18;98075.69;;;15.31;76.86
59194;BME280;44967;48.598;15.650;2023-06-19T00:02:43;98076.44;;;15.33;76.87
59194;BME280;44967;48.598;15.650;2023-06-19T00:05:10;98073.97;;;15.30;77.17
59194;BME280;44967;48.598;15.650;2023-06-19T00:07:36;98072.31;;;15.27;77.28
59194;BME280;44967;48.598;15.650;2023-06-19T00:10:05;98072.25;;;15.29;77.43
59194;BME280;44967;48.598;15.650;2023-06-19T00:12:31;98074.38;;;15.22;77.11
59194;BME280;44967;48.598;15.650;2023-06-19T00:14:57;98074.47;;;15.03;78.57
59194;BME280;44967;48.598;15.650;2023-06-19T00:17:23;98074.59;;;15.18;77.92
59194;BME280;44967;48.598;15.650;2023-06-19T00:19:51;98071.47;;;15.09;78.50
59194;BME280;44967;48.598;15.650;2023-06-19T00:22:17;98074.00;;;15.13;78.31
59194;BME280;44967;48.598;15.650;2023-06-19T00:24:42;98075.25;;;15.05;78.27
59194;BME280;44967;48.598;15.650;2023-06-19T00:27:08;98076.44;;;15.00;78.13
59194;BME280;44967;48.598;15.650;2023-06-19T00:29:34;98077.38;;;14.99;77.90
59194;BME280;44967;48.598;15.650;2023-06-19T00:32:00;98072.78;;;14.85;78.75
59194;BME280;44967;48.598;15.650;2023-06-19T00:34:26;98072.28;;;14.77;78.85
59194;BME280;44967;48.598;15.650;2023-06-19T00:36:52;98072.59;;;14.71;78.51
59194;BME280;44967;48.598;15.650;2023-06-19T00:39:25;98066.41;;;14.71;78.84
59194;BME280;44967;48.598;15.650;2023-06-19T00:41:54;98077.44;;;14.63;79.23
59194;BME280;44967;48.598;15.650;2023-06-19T00:44:21;98070.00;;;14.70;78.89
59194;BME280;44967;48.598;15.650;2023-06-19T00:46:46;98084.78;;;14.58;79.22
59194;BME280;44967;48.598;15.650;2023-06-19T00:49:15;98083.84;;;14.59;79.38
59194;BME280;44967;48.598;15.650;2023-06-19T00:51:41;98074.38;;;14.53;78.92
59194;BME280;44967;48.598;15.650;2023-06-19T00:54:06;98078.97;;;14.50;79.35
59194;BME280;44967;48.598;15.650;2023-06-19T00:56:32;98068.59;;;14.45;79.57
59194;BME280;44967;48.598;15.650;2023-06-19T00:59:01;98069.28;;;14.49;79.53
59194;BME280;44967;48.598;15.650;2023-06-19T01:01:27;98066.16;;;14.58;79.35
59194;BME280;44967;48.598;15.650;2023-06-19T01:03:54;98062.50;;;14.60;79.09
59194;BME280;44967;48.598;15.650;2023-06-19T01:06:23;98070.53;;;14.59;79.04
59194;BME280;44967;48.598;15.650;2023-06-19T01:09:02;98066.16;;;14.58;78.73
59194;BME280;44967;48.598;15.650;2023-06-19T01:11:35;98069.41;;;14.46;79.26
59194;BME280;44967;48.598;15.650;2023-06-19T01:14:14;98071.94;;;14.49;78.51
59194;BME280;44967;48.598;15.650;2023-06-19T01:16:41;98075.88;;;14.42;79.01
59194;BME280;44967;48.598;15.650;2023-06-19T01:19:10;98071.63;;;14.38;79.19
59194;BME280;44967;48.598;15.650;2023-06-19T01:21:36;98064.72;;;14.34;79.29
59194;BME280;44967;48.598;15.650;2023-06-19T01:24:02;98066.88;;;14.26;79.58
59194;BME280;44967;48.598;15.650;2023-06-19T01:26:28;98071.69;;;14.18;80.34
59194;BME280;44967;48.598;15.650;2023-06-19T01:28:55;98067.88;;;14.23;79.58
59194;BME280;44967;48.598;15.650;2023-06-19T01:31:25;98063.41;;;14.24;80.06
59194;BME280;44967;48.598;15.650;2023-06-19T01:33:52;98072.63;;;14.16;79.98
59194;BME280;44967;48.598;15.650;2023-06-19T01:36:20;98074.72;;;14.10;80.13
59194;BME280;44967;48.598;15.650;2023-06-19T01:38:47;98075.00;;;14.04;81.12
59194;BME280;44967;48.598;15.650;2023-06-19T01:41:15;98062.66;;;14.03;81.08
59194;BME280;44967;48.598;15.650;2023-06-19T01:43:42;98072.84;;;14.12;80.09
59194;BME280;44967;48.598;15.650;2023-06-19T01:46:08;98064.50;;;14.20;80.26
59194;BME280;44967;48.598;15.650;2023-06-19T01:48:38;98072.41;;;14.21;80.12
59194;BME280;44967;48.598;15.650;2023-06-19T01:51:04;98068.09;;;14.18;80.20
59194;BME280;44967;48.598;15.650;2023-06-19T01:53:30;98067.59;;;14.10;79.81
59194;BME280;44967;48.598;15.650;2023-06-19T01:55:58;98075.56;;;14.10;79.90
59194;BME280;44967;48.598;15.650;2023-06-19T01:58:23;98073.59;;;13.97;80.58
59194;BME280;44967;48.598;15.650;2023-06-19T02:00:49;98080.03;;;13.91;81.14
59194;BME280;44967;48.598;15.650;2023-06-19T02:03:15;98083.91;;;13.84;80.79
59194;BME280;44967;48.598;15.650;2023-06-19T02:05:42;98075.19;;;13.82;81.14
59194;BME280;44967;48.598;15.650;2023-06-19T02:08:08;98085.56;;;13.87;80.69
59194;BME280;44967;48.598;15.650;2023-06-19T02:10:34;98077.75;;;13.84;80.68
59194;BME280;44967;48.598;15.650;2023-06-19T02:13:00;98075.91;;;13.86;80.10
59194;BME280;44967;48.598;15.650;2023-06-19T02:15:25;98075.38;;;13.96;79.85
59194;BME280;44967;48.598;15.650;2023-06-19T02:17:51;98078.59;;;13.84;80.91
59194;BME280;44967;48.598;15.650;2023-06-19T02:20:21;98071.81;;;13.79;81.18
59194;BME280;44967;48.598;15.650;2023-06-19T02:22:47;98072.88;;;13.75;80.89
59194;BME280;44967;48.598;15.650;2023-06-19T02:25:12;98063.25;;;13.72;81.37
59194;BME280;44967;48.598;15.650;2023-06-19T02:27:38;98077.75;;;13.84;81.08
59194;BME280;44967;48.598;15.650;2023-06-19T02:30:05;98067.56;;;13.75;81.05
59194;BME280;44967;48.598;15.650;2023-06-19T02:32:31;98073.88;;;13.72;81.80
59194;BME280;44967;48.598;15.650;2023-06-19T02:34:57;98070.44;;;13.70;81.21
59194;BME280;44967;48.598;15.650;2023-06-19T02:37:23;98069.47;;;13.71;80.74
59194;BME280;44967;48.598;15.650;2023-06-19T02:39:48;98077.59;;;13.68;80.68
59194;BME280;44967;48.598;15.650;2023-06-19T02:42:14;98077.75;;;13.65;80.95
59194;BME280;44967;48.598;15.650;2023-06-19T02:44:40;98080.41;;;13.65;80.73
59194;BME280;44967;48.598;15.650;2023-06-19T02:47:06;98077.81;;;13.63;81.15
59194;BME280;44967;48.598;15.650;2023-06-19T02:49:31;98076.88;;;13.64;81.51
59194;BME280;44967;48.598;15.650;2023-06-19T02:51:57;98074.88;;;13.69;80.94
59194;BME280;44967;48.598;15.650;2023-06-19T02:54:23;98070.50;;;13.68;80.63
59194;BME280;44967;48.598;15.650;2023-06-19T02:56:49;98080.34;;;13.66;81.02
59194;BME280;44967;48.598;15.650;2023-06-19T02:59:14;98081.31;;;13.64;80.96
59194;BME280;44967;48.598;15.650;2023-06-19T03:01:40;98080.91;;;13.73;80.85
59194;BME280;44967;48.598;15.650;2023-06-19T03:04:06;98072.88;;;13.75;80.41
59194;BME280;44967;48.598;15.650;2023-06-19T03:06:31;98072.78;;;13.76;80.46
59194;BME280;44967;48.598;15.650;2023-06-19T03:09:08;98083.28;;;13.79;80.23
59194;BME280;44967;48.598;15.650;2023-06-19T03:11:40;98076.47;;;13.74;80.03
59194;BME280;44967;48.598;15.650;2023-06-19T03:14:07;98082.03;;;13.67;80.19
59194;BME280;44967;48.598;15.650;2023-06-19T03:16:35;98076.47;;;13.74;80.18
59194;BME280;44967;48.598;15.650;2023-06-19T03:19:01;98081.19;;;13.67;80.25
59194;BME280;44967;48.598;15.650;2023-06-19T03:21:27;98078.88;;;13.59;80.47
59194;BME280;44967;48.598;15.650;2023-06-19T03:23:53;98077.81;;;13.63;80.39
59194;BME280;44967;48.598;15.650;2023-06-19T03:26:20;98080.47;;;13.63;80.38
59194;BME280;44967;48.598;15.650;2023-06-19T03:28:46;98079.59;;;13.63;80.42
59194;BME280;44967;48.598;15.650;2023-06-19T03:31:15;98091.22;;;13.60;80.20
59194;BME280;44967;48.598;15.650;2023-06-19T03:33:40;98089.84;;;13.52;80.74
59194;BME280;44967;48.598;15.650;2023-06-19T03:36:06;98095.38;;;13.47;80.53
59194;BME280;44967;48.598;15.650;2023-06-19T03:38:33;98094.53;;;13.47;80.51
59194;BME280;44967;48.598;15.650;2023-06-19T03:40:58;98091.06;;;13.45;81.11
59194;BME280;44967;48.598;15.650;2023-06-19T03:43:24;98092.84;;;13.44;81.32
59194;BME280;44967;48.598;15.650;2023-06-19T03:45:50;98099.94;;;13.44;81.11
59194;BME280;44967;48.598;15.650;2023-06-19T03:48:16;98103.13;;;13.52;81.19
59194;BME280;44967;48.598;15.650;2023-06-19T03:50:45;98108.44;;;13.52;80.92
59194;BME280;44967;48.598;15.650;2023-06-19T03:53:11;98109.59;;;13.46;81.80
59194;BME280;44967;48.598;15.650;2023-06-19T03:55:37;98110.16;;;13.53;81.25
59194;BME280;44967;48.598;15.650;2023-06-19T03:58:02;98106.28;;;13.60;80.98
59194;BME280;44967;48.598;15.650;2023-06-19T04:00:28;98109.75;;;13.62;81.55
59194;BME280;44967;48.598;15.650;2023-06-19T04:02:54;98110.63;;;13.62;81.50
59194;BME280;44967;48.598;15.650;2023-06-19T04:05:20;98103.88;;;13.74;81.04
59194;BME280;44967;48.598;15.650;2023-06-19T04:07:46;98109.06;;;13.77;81.12
59194;BME280;44967;48.598;15.650;2023-06-19T04:10:12;98108.69;;;13.85;81.22
59194;BME280;44967;48.598;15.650;2023-06-19T04:12:38;98108.75;;;13.83;80.70
59194;BME280;44967;48.598;15.650;2023-06-19T04:15:06;98114.06;;;13.83;80.86
59194;BME280;44967;48.598;15.650;2023-06-19T04:17:32;98107.91;;;14.01;80.34
59194;BME280;44967;48.598;15.650;2023-06-19T04:19:58;98113.72;;;14.09;80.18
59194;BME280;44967;48.598;15.650;2023-06-19T04:22:24;98121.19;;;14.20;80.14
59194;BME280;44967;48.598;15.650;2023-06-19T04:24:49;98118.22;;;14.26;80.34
59194;BME280;44967;48.598;15.650;2023-06-19T04:27:15;98110.88;;;14.31;80.26
59194;BME280;44967;48.598;15.650;2023-06-19T04:29:44;98117.88;;;14.34;80.36
59194;BME280;44967;48.598;15.650;2023-06-19T04:32:10;98106.81;;;14.43;79.81
59194;BME280;44967;48.598;15.650;2023-06-19T04:34:38;98117.00;;;14.52;79.44
59194;BME280;44967;48.598;15.650;2023-06-19T04:37:05;98114.75;;;14.61;79.46
59194;BME280;44967;48.598;15.650;2023-06-19T04:39:30;98114.59;;;14.65;79.01
59194;BME280;44967;48.598;15.650;2023-06-19T04:41:59;98114.50;;;14.66;79.15
59194;BME280;44967;48.598;15.650;2023-06-19T04:44:25;98110.28;;;14.62;79.70
59194;BME280;44967;48.598;15.650;2023-06-19T04:46:51;98113.91;;;14.61;79.91
59194;BME280;44967;48.598;15.650;2023-06-19T04:49:29;98110.28;;;14.62;80.23
59194;BME280;44967;48.598;15.650;2023-06-19T04:51:58;98119.59;;;14.71;79.46
59194;BME280;44967;48.598;15.650;2023-06-19T04:54:25;98118.34;;;14.60;80.16
59194;BME280;44967;48.598;15.650;2023-06-19T04:56:51;98115.91;;;14.56;80.88
59194;BME280;44967;48.598;15.650;2023-06-19T04:59:18;98117.47;;;14.60;81.01
59194;BME280;44967;48.598;15.650;2023-06-19T05:01:44;98124.53;;;14.61;81.34
59194;BME280;44967;48.598;15.650;2023-06-19T05:04:10;98122.97;;;14.57;81.46
59194;BME280;44967;48.598;15.650;2023-06-19T05:06:39;98121.22;;;14.56;81.60
59194;BME280;44967;48.598;15.650;2023-06-19T05:09:05;98117.47;;;14.60;81.88
59194;BME280;44967;48.598;15.650;2023-06-19T05:11:31;98121.22;;;14.56;81.56
59194;BME280;44967;48.598;15.650;2023-06-19T05:13:56;98121.06;;;14.59;81.83
59194;BME280;44967;48.598;15.650;2023-06-19T05:16:22;98134.38;;;14.59;81.80
59194;BME280;44967;48.598;15.650;2023-06-19T05:18:49;98123.50;;;14.63;81.80
59194;BME280;44967;48.598;15.650;2023-06-19T05:21:14;98127.53;;;14.72;81.78
59194;BME280;44967;48.598;15.650;2023-06-19T05:23:40;98136.13;;;14.77;81.39
59194;BME280;44967;48.598;15.650;2023-06-19T05:26:06;98128.00;;;14.97;80.72
59194;BME280;44967;48.598;15.650;2023-06-19T05:28:32;98128.72;;;15.01;80.30
59194;BME280;44967;48.598;15.650;2023-06-19T05:30:58;98132.28;;;15.17;80.29
59194;BME280;44967;48.598;15.650;2023-06-19T05:33:23;98125.41;;;15.30;79.43
59194;BME280;44967;48.598;15.650;2023-06-19T05:35:49;98128.47;;;15.40;79.35
59194;BME280;44967;48.598;15.650;2023-06-19T05:38:18;98131.53;;;15.49;79.13
59194;BME280;44967;48.598;15.650;2023-06-19T05:40:44;98131.09;;;15.57;78.64
59194;BME280;44967;48.598;15.650;2023-06-19T05:43:09;98139.16;;;15.73;78.30
59194;BME280;44967;48.598;15.650;2023-06-19T05:45:35;98135.75;;;15.86;77.54
59194;BME280;44967;48.598;15.650;2023-06-19T05:48:01;98142.47;;;15.93;77.29
59194;BME280;44967;48.598;15.650;2023-06-19T05:50:26;98145.56;;;16.01;77.01
59194;BME280;44967;48.598;15.650;2023-06-19T05:52:52;98138.38;;;16.03;77.04
59194;BME280;44967;48.598;15.650;2023-06-19T05:55:17;98135.09;;;16.14;77.27
59194;BME280;44967;48.598;15.650;2023-06-19T05:57:43;98138.22;;;16.22;76.98
59194;BME280;44967;48.598;15.650;2023-06-19T06:00:10;98138.72;;;16.29;77.14
59194;BME280;44967;48.598;15.650;2023-06-19T06:02:41;98134.75;;;16.51;77.05
59194;BME280;44967;48.598;15.650;2023-06-19T06:05:08;98143.13;;;16.61;76.99
59194;BME280;44967;48.598;15.650;2023-06-19T06:07:37;98141.84;;;16.68;76.78
59194;BME280;44967;48.598;15.650;2023-06-19T06:10:03;98151.03;;;16.78;75.89
59194;BME280;44967;48.598;15.650;2023-06-19T06:12:29;98146.81;;;16.90;76.01
59194;BME280;44967;48.598;15.650;2023-06-19T06:14:54;98145.03;;;17.05;75.88
59194;BME280;44967;48.598;15.650;2023-06-19T06:17:20;98149.38;;;17.21;74.66
59194;BME280;44967;48.598;15.650;2023-06-19T06:19:45;98143.47;;;17.30;74.86
59194;BME280;44967;48.598;15.650;2023-06-19T06:22:11;98155.34;;;17.40;74.46
59194;BME280;44967;48.598;15.650;2023-06-19T06:24:37;98148.41;;;17.52;73.71
59194;BME280;44967;48.598;15.650;2023-06-19T06:27:05;98157.44;;;17.65;73.19
59194;BME280;44967;48.598;15.650;2023-06-19T06:29:32;98157.63;;;17.76;73.42
59194;BME280;44967;48.598;15.650;2023-06-19T06:32:05;98165.75;;;17.89;72.78
59194;BME280;44967;48.598;15.650;2023-06-19T06:34:34;98163.38;;;18.13;72.33
59194;BME280;44967;48.598;15.650;2023-06-19T06:37:00;98157.47;;;18.63;69.49
59194;BME280;44967;48.598;15.650;2023-06-19T06:39:26;98164.41;;;19.06;68.81
59194;BME280;44967;48.598;15.650;2023-06-19T06:41:52;98153.31;;;20.02;65.65
59194;BME280;44967;48.598;15.650;2023-06-19T06:44:18;98158.03;;;21.44;61.46
59194;BME280;44967;48.598;15.650;2023-06-19T06:46:43;98156.63;;;22.96;56.49
59194;BME280;44967;48.598;15.650;2023-06-19T06:49:09;98154.53;;;24.35;52.30
59194;BME280;44967;48.598;15.650;2023-06-19T06:51:35;98154.09;;;25.58;48.95
59194;BME280;44967;48.598;15.650;2023-06-19T06:54:00;98146.72;;;26.25;47.86
59194;BME280;44967;48.598;15.650;2023-06-19T06:56:26;98142.44;;;27.50;43.54
59194;BME280;44967;48.598;15.650;2023-06-19T06:58:52;98148.38;;;27.89;41.77
59194;BME280;44967;48.598;15.650;2023-06-19T07:01:17;98150.03;;;29.01;39.58
59194;BME280;44967;48.598;15.650;2023-06-19T07:03:43;98144.75;;;28.66;38.47
59194;BME280;44967;48.598;15.650;2023-06-19T07:06:09;98151.78;;;29.26;37.53
59194;BME280;44967;48.598;15.650;2023-06-19T07:08:35;98149.06;;;27.91;39.22
59194;BME280;44967;48.598;15.650;2023-06-19T07:11:00;98151.94;;;27.18;40.02
59194;BME280;44967;48.598;15.650;2023-06-19T07:13:26;98154.50;;;25.34;43.66
59194;BME280;44967;48.598;15.650;2023-06-19T07:15:52;98154.47;;;24.16;47.34
59194;BME280;44967;48.598;15.650;2023-06-19T07:18:18;98158.47;;;23.27;51.37
59194;BME280;44967;48.598;15.650;2023-06-19T07:20:43;98160.47;;;23.78;51.22
59194;BME280;44967;48.598;15.650;2023-06-19T07:23:10;98160.03;;;24.94;49.12
59194;BME280;44967;48.598;15.650;2023-06-19T07:25:36;98161.69;;;26.66;44.14
59194;BME280;44967;48.598;15.650;2023-06-19T07:28:01;98150.78;;;28.18;39.23
59194;BME280;44967;48.598;15.650;2023-06-19T07:30:31;98155.28;;;28.27;37.70
59194;BME280;44967;48.598;15.650;2023-06-19T07:32:56;98162.75;;;28.92;36.54
59194;BME280;44967;48.598;15.650;2023-06-19T07:35:22;98154.06;;;28.89;36.21
59194;BME280;44967;48.598;15.650;2023-06-19T07:37:48;98162.38;;;28.53;36.56
59194;BME280;44967;48.598;15.650;2023-06-19T07:40:14;98164.81;;;27.34;39.32
59194;BME280;44967;48.598;15.650;2023-06-19T07:42:40;98160.31;;;27.07;40.91
59194;BME280;44967;48.598;15.650;2023-06-19T07:45:05;98166.16;;;28.27;38.91
59194;BME280;44967;48.598;15.650;2023-06-19T07:47:31;98156.75;;;28.81;37.73
59194;BME280;44967;48.598;15.650;2023-06-19T07:49:57;98152.13;;;27.70;39.48
59194;BME280;44967;48.598;15.650;2023-06-19T07:52:22;98149.00;;;26.94;41.32
59194;BME280;44967;48.598;15.650;2023-06-19T07:54:55;98164.22;;;26.68;42.16
59194;BME280;44967;48.598;15.650;2023-06-19T07:57:22;98156.81;;;26.33;42.79
59194;BME280;44967;48.598;15.650;2023-06-19T07:59:49;98166.16;;;26.02;44.92
59194;BME280;44967;48.598;15.650;2023-06-19T08:02:14;98166.00;;;27.32;43.67
59194;BME280;44967;48.598;15.650;2023-06-19T08:04:40;98174.56;;;28.16;41.29
59194;BME280;44967;48.598;15.650;2023-06-19T08:07:06;98166.94;;;27.58;41.33
59194;BME280;44967;48.598;15.650;2023-06-19T08:09:32;98164.22;;;27.76;40.24
59194;BME280;44967;48.598;15.650;2023-06-19T08:11:58;98165.03;;;27.94;41.34
59194;BME280;44967;48.598;15.650;2023-06-19T08:14:23;98176.91;;;28.10;40.92
59194;BME280;44967;48.598;15.650;2023-06-19T08:16:49;98176.03;;;28.87;39.25
59194;BME280;44967;48.598;15.650;2023-06-19T08:19:15;98171.78;;;29.43;38.26
59194;BME280;44967;48.598;15.650;2023-06-19T08:21:40;98174.38;;;29.93;37.38
59194;BME280;44967;48.598;15.650;2023-06-19T08:24:06;98175.22;;;29.93;37.98
59194;BME280;44967;48.598;15.650;2023-06-19T08:26:32;98173.84;;;29.73;37.66
59194;BME280;44967;48.598;15.650;2023-06-19T08:28:57;98177.56;;;30.45;36.76
59194;BME280;44967;48.598;15.650;2023-06-19T08:31:23;98177.22;;;30.24;36.70
59194;BME280;44967;48.598;15.650;2023-06-19T08:33:54;98176.00;;;30.51;36.11
59194;BME280;44967;48.598;15.650;2023-06-19T08:36:20;98167.47;;;31.09;34.61
59194;BME280;44967;48.598;15.650;2023-06-19T08:38:46;98176.69;;;30.36;37.12
59194;BME280;44967;48.598;15.650;2023-06-19T08:41:16;98178.59;;;30.28;37.54
59194;BME280;44967;48.598;15.650;2023-06-19T08:43:41;98176.09;;;29.94;37.98
59194;BME280;44967;48.598;15.650;2023-06-19T08:46:14;98181.00;;;29.99;38.16
59194;BME280;44967;48.598;15.650;2023-06-19T08:48:40;98178.28;;;29.74;36.91
59194;BME280;44967;48.598;15.650;2023-06-19T08:51:05;98176.69;;;29.56;37.90
59194;BME280;44967;48.598;15.650;2023-06-19T08:53:34;98187.34;;;28.75;38.64
59194;BME280;44967;48.598;15.650;2023-06-19T08:56:00;98179.09;;;28.33;39.50
59194;BME280;44967;48.598;15.650;2023-06-19T08:58:26;98177.56;;;27.87;39.78
59194;BME280;44967;48.598;15.650;2023-06-19T09:00:52;98176.94;;;27.93;40.23
59194;BME280;44967;48.598;15.650;2023-06-19T09:03:21;98178.06;;;27.64;41.31
59194;BME280;44967;48.598;15.650;2023-06-19T09:05:48;98169.19;;;27.80;40.86
59194;BME280;44967;48.598;15.650;2023-06-19T09:08:18;98169.78;;;27.92;40.35
59194;BME280;44967;48.598;15.650;2023-06-19T09:11:04;98169.41;;;27.87;42.01
59194;BME280;44967;48.598;15.650;2023-06-19T09:13:31;98171.66;;;27.91;40.96
59194;BME280;44967;48.598;15.650;2023-06-19T09:16:07;98176.28;;;28.17;40.50
59194;BME280;44967;48.598;15.650;2023-06-19T09:18:45;98174.88;;;28.64;40.14
59194;BME280;44967;48.598;15.650;2023-06-19T09:21:20;98174.41;;;29.19;38.36
59194;BME280;44967;48.598;15.650;2023-06-19T09:23:50;98175.00;;;29.46;38.53
59194;BME280;44967;48.598;15.650;2023-06-19T09:26:19;98173.13;;;29.79;37.97
59194;BME280;44967;48.598;15.650;2023-06-19T09:28:46;98169.75;;;29.77;37.91
59194;BME280;44967;48.598;15.650;2023-06-19T09:31:12;98165.81;;;29.47;39.11
59194;BME280;44967;48.598;15.650;2023-06-19T09:33:39;98178.47;;;30.05;37.87
59194;BME280;44967;48.598;15.650;2023-06-19T09:36:06;98180.34;;;29.97;38.15
59194;BME280;44967;48.598;15.650;2023-06-19T09:38:36;98178.97;;;30.09;38.00
59194;BME280;44967;48.598;15.650;2023-06-19T09:41:04;98174.22;;;29.86;37.38
59194;BME280;44967;48.598;15.650;2023-06-19T09:43:39;98182.69;;;30.16;37.86
59194;BME280;44967;48.598;15.650;2023-06-19T09:46:06;98175.22;;;29.93;38.33
59194;BME280;44967;48.598;15.650;2023-06-19T09:48:34;98180.63;;;29.53;39.87
59194;BME280;44967;48.598;15.650;2023-06-19T09:51:06;98168.38;;;29.57;40.32
59194;BME280;44967;48.598;15.650;2023-06-19T09:53:36;98171.28;;;29.72;39.42
59194;BME280;44967;48.598;15.650;2023-06-19T09:56:02;98176.22;;;29.68;39.19
59194;BME280;44967;48.598;15.650;2023-06-19T09:58:27;98172.81;;;29.82;38.42
59194;BME280;44967;48.598;15.650;2023-06-19T10:00:54;98174.88;;;29.97;37.99
59194;BME280;44967;48.598;15.650;2023-06-19T10:03:20;98165.28;;;29.52;38.12
59194;BME280;44967;48.598;15.650;2023-06-19T10:05:46;98168.53;;;29.72;37.16
59194;BME280;44967;48.598;15.650;2023-06-19T10:08:13;98164.31;;;29.77;36.60
59194;BME280;44967;48.598;15.650;2023-06-19T10:10:47;98173.53;;;29.92;37.68
59194;BME280;44967;48.598;15.650;2023-06-19T10:13:15;98162.25;;;29.71;38.25
59194;BME280;44967;48.598;15.650;2023-06-19T10:15:44;98162.25;;;29.79;36.33
59194;BME280;44967;48.598;15.650;2023-06-19T10:18:14;98159.72;;;29.78;36.75
59194;BME280;44967;48.598;15.650;2023-06-19T10:20:44;98154.75;;;29.81;35.00
59194;BME280;44967;48.598;15.650;2023-06-19T10:23:16;98156.81;;;30.04;36.47
59194;BME280;44967;48.598;15.650;2023-06-19T10:25:45;98160.38;;;30.12;35.66
59194;BME280;44967;48.598;15.650;2023-06-19T10:28:23;98153.22;;;30.03;36.29
59194;BME280;44967;48.598;15.650;2023-06-19T10:31:08;98158.00;;;30.17;35.21
59194;BME280;44967;48.598;15.650;2023-06-19T10:33:36;98159.50;;;30.20;34.59
59194;BME280;44967;48.598;15.650;2023-06-19T10:36:21;98144.50;;;30.24;33.42
59194;BME280;44967;48.598;15.650;2023-06-19T10:38:48;98145.53;;;30.23;33.95
59194;BME280;44967;48.598;15.650;2023-06-19T10:41:18;98149.31;;;29.81;32.14
59194;BME280;44967;48.598;15.650;2023-06-19T10:44:13;98141.13;;;29.41;32.90
59194;BME280;44967;48.598;15.650;2023-06-19T10:46:42;98144.22;;;29.62;34.25
59194;BME280;44967;48.598;15.650;2023-06-19T10:49:08;98137.41;;;29.74;31.74
59194;BME280;44967;48.598;15.650;2023-06-19T10:51:40;98138.41;;;29.73;33.23
59194;BME280;44967;48.598;15.650;2023-06-19T10:54:08;98136.00;;;30.11;32.93
59194;BME280;44967;48.598;15.650;2023-06-19T10:56:34;98138.06;;;30.17;31.64
59194;BME280;44967;48.598;15.650;2023-06-19T10:59:03;98140.09;;;30.07;31.73
59194;BME280;44967;48.598;15.650;2023-06-19T11:01:39;98141.75;;;30.48;31.52
59194;BME280;44967;48.598;15.650;2023-06-19T11:04:12;98138.53;;;30.28;33.39
59194;BME280;44967;48.598;15.650;2023-06-19T11:06:39;98135.09;;;30.51;30.91
59194;BME280;44967;48.598;15.650;2023-06-19T11:09:09;98130.28;;;30.61;31.03
59194;BME280;44967;48.598;15.650;2023-06-19T11:11:43;98129.84;;;30.80;31.69
59194;BME280;44967;48.598;15.650;2023-06-19T11:14:10;98130.50;;;30.43;31.42
59194;BME280;44967;48.598;15.650;2023-06-19T11:16:39;98120.31;;;30.21;30.96
59194;BME280;44967;48.598;15.650;2023-06-19T11:19:07;98127.00;;;30.10;30.89
59194;BME280;44967;48.598;15.650;2023-06-19T11:21:35;98128.00;;;30.25;31.06
59194;BME280;44967;48.598;15.650;2023-06-19T11:24:12;98120.31;;;30.21;30.36
59194;BME280;44967;48.598;15.650;2023-06-19T11:26:39;98120.84;;;30.16;31.53
59194;BME280;44967;48.598;15.650;2023-06-19T11:31:41;98123.00;;;30.53;29.23
59194;BME280;44967;48.598;15.650;2023-06-19T11:34:07;98122.66;;;30.48;28.15
59194;BME280;44967;48.598;15.650;2023-06-19T11:36:37;98119.50;;;30.04;29.47
59194;BME280;44967;48.598;15.650;2023-06-19T11:39:03;98105.72;;;29.98;31.39
59194;BME280;44967;48.598;15.650;2023-06-19T11:41:30;98117.25;;;30.16;33.26
59194;BME280;44967;48.598;15.650;2023-06-19T11:44:00;98115.00;;;30.44;33.19
59194;BME280;44967;48.598;15.650;2023-06-19T11:46:30;98114.00;;;30.28;33.00
59194;BME280;44967;48.598;15.650;2023-06-19T11:49:08;98109.22;;;30.22;32.25
59194;BME280;44967;48.598;15.650;2023-06-19T11:51:34;98107.81;;;30.51;32.25
59194;BME280;44967;48.598;15.650;2023-06-19T11:54:00;98108.00;;;30.49;31.19
59194;BME280;44967;48.598;15.650;2023-06-19T11:56:26;98106.31;;;30.79;30.98
59194;BME280;44967;48.598;15.650;2023-06-19T11:58:52;98102.41;;;30.81;29.19
59194;BME280;44967;48.598;15.650;2023-06-19T12:01:17;98091.59;;;30.57;30.45
59194;BME280;44967;48.598;15.650;2023-06-19T12:03:43;98092.75;;;30.94;30.46
59194;BME280;44967;48.598;15.650;2023-06-19T12:06:10;98092.03;;;30.77;29.75
59194;BME280;44967;48.598;15.650;2023-06-19T12:08:35;98094.94;;;30.67;29.82
59194;BME280;44967;48.598;15.650;2023-06-19T12:11:03;98088.38;;;30.84;29.96
59194;BME280;44967;48.598;15.650;2023-06-19T12:13:34;98094.63;;;30.62;28.74
59194;BME280;44967;48.598;15.650;2023-06-19T12:15:59;98086.38;;;31.09;28.82
59194;BME280;44967;48.598;15.650;2023-06-19T12:18:28;98093.00;;;31.15;28.80
59194;BME280;44967;48.598;15.650;2023-06-19T12:20:53;98088.34;;;31.23;29.29
59194;BME280;44967;48.598;15.650;2023-06-19T12:23:19;98088.09;;;31.10;28.80
59194;BME280;44967;48.598;15.650;2023-06-19T12:25:44;98086.22;;;31.11;28.04
59194;BME280;44967;48.598;15.650;2023-06-19T12:28:10;98083.47;;;30.80;28.66
59194;BME280;44967;48.598;15.650;2023-06-19T12:30:37;98095.53;;;30.47;28.80
59194;BME280;44967;48.598;15.650;2023-06-19T12:33:02;98098.69;;;30.66;29.50
59194;BME280;44967;48.598;15.650;2023-06-19T12:35:29;98091.44;;;30.51;29.20
59194;BME280;44967;48.598;15.650;2023-06-19T12:37:54;98097.94;;;30.41;29.66
59194;BME280;44967;48.598;15.650;2023-06-19T12:40:20;98109.81;;;29.93;30.65
59194;BME280;44967;48.598;15.650;2023-06-19T12:42:46;98101.13;;;29.66;31.42
59194;BME280;44967;48.598;15.650;2023-06-19T12:45:12;98099.88;;;29.20;32.94
59194;BME280;44967;48.598;15.650;2023-06-19T12:47:38;98098.47;;;28.83;37.21
59194;BME280;44967;48.598;15.650;2023-06-19T12:50:04;98101.81;;;28.35;37.39
59194;BME280;44967;48.598;15.650;2023-06-19T12:52:29;98104.28;;;28.54;37.71